Map

Track Data

SID SEASON NUMBER BASIN SUBBASIN NAME ISO_TIME NATURE LAT LON WMO_WIND WMO_PRES WMO_AGENCY TRACK_TYPE DIST2LAND LANDFALL IFLAG USA_AGENCY USA_ATCF_ID USA_LAT USA_LON USA_RECORD USA_STATUS USA_WIND USA_PRES USA_SSHS USA_R34_NE USA_R34_SE USA_R34_SW USA_R34_NW USA_R50_NE USA_R50_SE USA_R50_SW USA_R50_NW USA_R64_NE USA_R64_SE USA_R64_SW USA_R64_NW USA_POCI USA_ROCI USA_RMW USA_EYE TOKYO_LAT TOKYO_LON TOKYO_GRADE TOKYO_WIND TOKYO_PRES TOKYO_R50_DIR TOKYO_R50_LONG TOKYO_R50_SHORT TOKYO_R30_DIR TOKYO_R30_LONG TOKYO_R30_SHORT TOKYO_LAND CMA_LAT CMA_LON CMA_CAT CMA_WIND CMA_PRES HKO_LAT HKO_LON HKO_CAT HKO_WIND HKO_PRES NEWDELHI_LAT NEWDELHI_LON NEWDELHI_GRADE NEWDELHI_WIND NEWDELHI_PRES NEWDELHI_CI NEWDELHI_DP NEWDELHI_POCI REUNION_LAT REUNION_LON REUNION_TYPE REUNION_WIND REUNION_PRES REUNION_TNUM REUNION_CI REUNION_RMW REUNION_R34_NE REUNION_R34_SE REUNION_R34_SW REUNION_R34_NW REUNION_R50_NE REUNION_R50_SE REUNION_R50_SW REUNION_R50_NW REUNION_R64_NE REUNION_R64_SE REUNION_R64_SW REUNION_R64_NW BOM_LAT BOM_LON BOM_TYPE BOM_WIND BOM_PRES BOM_TNUM BOM_CI BOM_RMW BOM_R34_NE BOM_R34_SE BOM_R34_SW BOM_R34_NW BOM_R50_NE BOM_R50_SE BOM_R50_SW BOM_R50_NW BOM_R64_NE BOM_R64_SE BOM_R64_SW BOM_R64_NW BOM_ROCI BOM_POCI BOM_EYE BOM_POS_METHOD BOM_PRES_METHOD NADI_LAT NADI_LON NADI_CAT NADI_WIND NADI_PRES WELLINGTON_LAT WELLINGTON_LON WELLINGTON_WIND WELLINGTON_PRES DS824_LAT DS824_LON DS824_STAGE DS824_WIND DS824_PRES TD9636_LAT TD9636_LON TD9636_STAGE TD9636_WIND TD9636_PRES TD9635_LAT TD9635_LON TD9635_WIND TD9635_PRES TD9635_ROCI NEUMANN_LAT NEUMANN_LON NEUMANN_CLASS NEUMANN_WIND NEUMANN_PRES MLC_LAT MLC_LON MLC_CLASS MLC_WIND MLC_PRES USA_GUST BOM_GUST BOM_GUST_PER REUNION_GUST REUNION_GUST_PER USA_SEAHGT USA_SEARAD_NE USA_SEARAD_SE USA_SEARAD_SW USA_SEARAD_NW STORM_SPEED STORM_DIR
1997301N09202 1997 103 EP CP NOT_NAMED 1997-10-27 18:00:00 NR 9.00000 -158.300 main 1143 1133 O_____________ jtwc_cp CP041997 9.00000 -158.300 25 -1 8 85
1997301N09202 1997 103 EP CP NOT_NAMED 1997-10-27 21:00:00 NR 9.03512 -157.880 main 1133 1114 P_____________ CP041997 9.03512 -157.880 25 -1 8 83
1997301N09202 1997 103 EP CP NOT_NAMED 1997-10-28 00:00:00 NR 9.10000 -157.500 main 1114 1097 O_____________ jtwc_cp CP041997 9.10000 -157.500 25 -1 7 74
1997301N09202 1997 103 EP CP NOT_NAMED 1997-10-28 03:00:00 NR 9.21995 -157.210 main 1097 1074 P_____________ CP041997 9.21995 -157.210 25 -1 5 53
1997301N09202 1997 103 EP CP NOT_NAMED 1997-10-28 06:00:00 NR 9.40000 -157.100 main 1074 1051 O_____________ jtwc_cp CP041997 9.40000 -157.100 25 -1 4 0
1997301N09202 1997 103 EP CP NOT_NAMED 1997-10-28 09:00:00 NR 9.63492 -157.203 main 1053 1024 P_____________ CP041997 9.63492 -157.203 25 -1 6 322
1997301N09202 1997 103 EP CP NOT_NAMED 1997-10-28 12:00:00 NR 9.90000 -157.500 main 1025 1002 O_____________ jtwc_cp CP041997 9.90000 -157.500 25 -1 9 307
1997301N09202 1997 103 EP CP NOT_NAMED 1997-10-28 15:00:00 NR 10.1650 -157.905 main 1002 991 P_____________ CP041997 10.1650 -157.905 25 -1 10 299
1997301N09202 1997 103 EP CP NOT_NAMED 1997-10-28 18:00:00 NR 10.4000 -158.400 main 994 987 O_____________ jtwc_cp CP041997 10.4000 -158.400 25 -1 11 293
1997301N09202 1997 103 EP CP NOT_NAMED 1997-10-28 21:00:00 NR 10.5725 -158.900 main 990 990 P_____________ CP041997 10.5725 -158.900 27 -1 10 287
1997301N09202 1997 103 EP CP NOT_NAMED 1997-10-29 00:00:00 NR 10.7000 -159.400 main 1000 998 O_____________ jtwc_cp CP041997 10.7000 -159.400 30 -1 10 285
1997301N09202 1997 103 EP CP NOT_NAMED 1997-10-29 03:00:00 NR 10.8149 -159.850 main 1012 1007 P_____________ CP041997 10.8149 -159.850 30 -1 9 283
1997301N09202 1997 103 EP CP NOT_NAMED 1997-10-29 06:00:00 NR 10.9000 -160.300 main 1022 1022 O_____________ jtwc_cp CP041997 10.9000 -160.300 30 -1 9 278
1997301N09202 1997 103 EP CP NOT_NAMED 1997-10-29 09:00:00 NR 10.9500 -160.800 main 1049 1040 P_____________ CP041997 10.9500 -160.800 32 -1 10 276
1997301N09202 1997 103 EP CP NOT_NAMED 1997-10-29 12:00:00 NR 11.0000 -161.300 main 1069 1069 O_____________ jtwc_cp CP041997 11.0000 -161.300 35 0 10 279
1997301N09202 1997 103 EP CP NOT_NAMED 1997-10-29 15:00:00 NR 11.0924 -161.758 main 1091 1091 P_____________ CP041997 11.0924 -161.758 30 -1 9 283
1997301N09202 1997 103 EP CP NOT_NAMED 1997-10-29 18:00:00 NR 11.2000 -162.200 main 1108 1108 O_____________ jtwc_cp CP041997 11.2000 -162.200 25 -1 9 283
1997301N09202 1997 103 EP CP NOT_NAMED 1997-10-29 21:00:00 NR 11.2999 -162.643 main 1127 1127 P_____________ CP041997 11.2999 -162.643 25 -1 9 283
1997301N09202 1997 103 EP CP NOT_NAMED 1997-10-30 00:00:00 NR 11.4000 -163.100 main 1155 1155 O_____________ jtwc_cp CP041997 11.4000 -163.100 25 -1 10 282
1997301N09202 1997 103 EP CP NOT_NAMED 1997-10-30 03:00:00 NR 11.5000 -163.593 main 1184 1184 P_____________ CP041997 11.4923 -163.563 25 -1 10 282
1997301N09202 1997 103 EP CP NOT_NAMED 1997-10-30 06:00:00 NR 11.6000 -164.100 main 1215 1215 O_____________ jtwc_cp CP041997 11.6000 -164.100 25 -1 10 281
1997301N09202 1997 103 EP CP NOT_NAMED 1997-10-30 09:00:00 NR 11.7000 -164.608 main 1247 1247 P_____________ CP041997 11.7729 -164.830 25 -1 11 282
1997301N09202 1997 103 EP CP NOT_NAMED 1997-10-30 12:00:00 TS 11.8333 -165.233 25 hurdat_epa main 1277 1277 O_____________ hurdat_epa CP041997 11.9000 -165.500 TD 25 -1 11 279
1997301N09202 1997 103 EP CP NOT_NAMED 1997-10-30 15:00:00 TS 11.8612 -165.678 main 1292 1292 P_____________ CP041997 11.8572 -165.853 TD 25 -1 8 273
1997301N09202 1997 103 EP CP NOT_NAMED 1997-10-30 18:00:00 TS 11.8800 -166.060 25 hurdat_epa main 1313 1313 O_____________ hurdat_epa CP041997 11.8000 -166.100 TD 25 -1 7 277
1997301N09202 1997 103 EP CP NOT_NAMED 1997-10-30 21:00:00 TS 11.9466 -166.430 main 1329 1326 P_____________ CP041997 11.8699 -166.420 TD 25 -1 8 284
1997301N09202 1997 103 EP CP NOT_NAMED 1997-10-31 00:00:00 TS 12.0667 -166.833 25 hurdat_epa main 1333 1333 O_____________ hurdat_epa CP041997 12.0000 -166.800 TD 25 -1 9 288
1997301N09202 1997 103 EP CP NOT_NAMED 1997-10-31 03:00:00 TS 12.2199 -167.282 main 1355 1352 P_____________ CP041997 12.1724 -167.255 TD 27 -1 10 286
1997301N09202 1997 103 EP CP NOT_NAMED 1997-10-31 06:00:00 TS 12.3308 -167.800 30 hurdat_epa main 1377 1375 O_____________ hurdat_epa CP041997 12.3000 -167.800 TD 30 -1 11 279
1997301N09202 1997 103 EP CP NOT_NAMED 1997-10-31 09:00:00 TS 12.3838 -168.386 main 1409 1409 P_____________ CP041997 12.3399 -168.420 TD 30 -1 12 266
1997301N09202 1997 103 EP CP NOT_NAMED 1997-10-31 12:00:00 TS 12.2533 -169.047 30 hurdat_epa main 1459 1459 O_____________ hurdat_epa CP041997 12.2000 -169.100 TD 30 -1 14 248
1997301N09202 1997 103 EP CP NOT_NAMED 1997-10-31 15:00:00 TS 11.8310 -169.754 main 1559 1559 P_____________ CP041997 11.8022 -169.770 TD 27 -1 17 237
1997301N09202 1997 103 EP CP NOT_NAMED 1997-10-31 18:00:00 TS 11.3000 -170.525 25 hurdat_epa main 1651 1651 O_____________ hurdat_epa CP041997 11.3000 -170.500 TD 25 -1 18 238
1997301N09202 1997 103 EP CP NOT_NAMED 1997-10-31 21:00:00 TS 10.8646 -171.328 main 1744 1744 P_____________ CP041997 10.8848 -171.312 TD 25 -1 19 244
1997301N09202 1997 103 EP CP NOT_NAMED 1997-11-01 00:00:00 TS 10.4750 -172.225 25 hurdat_epa main 1844 1844 O_____________ hurdat_epa CP041997 10.5000 -172.200 TD 25 -1 20 249
1997301N09202 1997 103 EP CP NOT_NAMED 1997-11-01 03:00:00 TS 10.1365 -173.241 main 1953 1953 P_____________ CP041997 10.1431 -173.138 TD 22 -1 22 253
1997301N09202 1997 103 EP CP NOT_NAMED 1997-11-01 06:00:00 TS 9.82500 -174.325 20 hurdat_epa main 2063 O_____________ hurdat_epa CP041997 9.80000 -174.100 TD 20 -1 22 254

About IBTrACS Database

This database is a web-friendly format of International Best Track Archive for Climate Stewardship (IBTrACS), a global best track data archive curated by NOAA dating back to 1842.

Updated: 2021-11-26